Time;durP1;ratioP1;P1;durP2;ratioP2;P2;SDS_P1;SDS_P2;PMS_P1;PMS_P2;Temp;Humidity;BMP_temperature;BMP_pressure;BME280_temperature;BME280_humidity;BME280_pressure;Samples;Min_cycle;Max_cycle;Signal;HPM_P1;HPM_P2
2021/03/01 00:01:11;;;;;;;8.25;6.53;;;9.50;76.00;;;;;;4995232;28;20061;-87
2021/03/01 00:03:37;;;;;;;8.95;6.57;;;9.50;76.00;;;;;;4984519;28;20039;-87
2021/03/01 00:06:03;;;;;;;9.23;6.80;;;9.50;76.00;;;;;;4963354;28;20037;-86
2021/03/01 00:08:29;;;;;;;9.80;7.10;;;9.50;76.00;;;;;;4995440;28;20113;-87
2021/03/01 00:10:55;;;;;;;10.43;7.40;;;9.50;76.00;;;;;;4962907;28;20026;-87
2021/03/01 00:13:21;;;;;;;8.75;6.53;;;9.50;76.10;;;;;;4978877;28;20141;-87
2021/03/01 00:15:49;;;;;;;10.07;6.70;;;9.50;76.10;;;;;;4978929;28;20030;-86
2021/03/01 00:18:14;;;;;;;8.20;6.32;;;9.50;76.10;;;;;;4995289;28;20053;-87
2021/03/01 00:20:40;;;;;;;10.13;6.68;;;9.50;76.00;;;;;;4978847;28;20038;-86
2021/03/01 00:23:08;;;;;;;8.70;6.18;;;9.50;76.10;;;;;;4978578;28;20116;-88
2021/03/01 00:25:34;;;;;;;10.02;7.18;;;9.50;76.10;;;;;;4979264;28;20038;-87
2021/03/01 00:28:00;;;;;;;11.10;7.25;;;9.40;76.00;;;;;;4995511;28;20471;-87
2021/03/01 00:30:26;;;;;;;10.20;7.30;;;9.40;76.00;;;;;;4962722;28;20030;-88
2021/03/01 00:32:52;;;;;;;11.77;7.90;;;9.50;76.10;;;;;;4982545;28;20038;-86
2021/03/01 00:35:17;;;;;;;10.75;7.57;;;9.40;76.10;;;;;;4990408;28;20077;-88
2021/03/01 00:37:43;;;;;;;11.07;7.32;;;9.40;76.10;;;;;;5000511;28;20139;-87
2021/03/01 00:40:10;;;;;;;11.93;7.97;;;9.40;76.10;;;;;;4958916;28;20037;-87
2021/03/01 00:42:35;;;;;;;10.30;6.75;;;9.40;76.10;;;;;;4975345;28;20027;-87
2021/03/01 00:45:02;;;;;;;11.30;7.90;;;9.40;76.10;;;;;;4989920;28;20116;-88
2021/03/01 00:47:28;;;;;;;10.90;7.43;;;9.40;76.20;;;;;;4986918;28;20579;-88
2021/03/01 00:49:53;;;;;;;10.77;7.88;;;9.40;76.20;;;;;;4991204;28;20129;-87
2021/03/01 00:52:19;;;;;;;10.93;7.10;;;9.40;76.20;;;;;;4993155;28;20061;-85
2021/03/01 00:54:45;;;;;;;10.68;7.65;;;9.30;76.10;;;;;;4978240;28;20446;-87
2021/03/01 00:57:11;;;;;;;13.43;9.00;;;9.30;76.10;;;;;;4961944;28;20073;-87
2021/03/01 00:59:37;;;;;;;13.20;7.82;;;9.30;76.10;;;;;;4977805;28;21484;-87
2021/03/01 01:02:06;;;;;;;11.65;8.35;;;9.30;76.20;;;;;;4979748;28;20033;-88
2021/03/01 01:04:36;;;;;;;12.20;8.18;;;9.30;76.20;;;;;;4978643;28;20035;-87
2021/03/01 01:07:02;;;;;;;11.98;8.07;;;9.30;76.20;;;;;;4993781;28;20161;-87
2021/03/01 01:09:27;;;;;;;12.23;7.95;;;9.30;76.20;;;;;;4978075;28;20037;-87
2021/03/01 01:11:53;;;;;;;11.38;7.43;;;9.30;76.20;;;;;;4971475;28;20031;-88
2021/03/01 01:14:19;;;;;;;11.77;7.95;;;9.30;76.20;;;;;;4982986;28;20030;-87
2021/03/01 01:16:45;;;;;;;12.63;8.50;;;9.30;76.20;;;;;;4994471;28;20034;-87
2021/03/01 01:19:10;;;;;;;12.85;8.63;;;9.30;76.20;;;;;;4978008;28;20419;-87
2021/03/01 01:21:36;;;;;;;13.00;8.38;;;9.30;76.20;;;;;;4974613;28;20101;-87
2021/03/01 01:24:03;;;;;;;11.77;8.70;;;9.30;76.20;;;;;;4977689;28;20125;-87
2021/03/01 01:26:29;;;;;;;12.98;8.60;;;9.20;76.20;;;;;;4960700;28;20023;-86
2021/03/01 01:28:55;;;;;;;12.00;8.88;;;9.20;76.20;;;;;;4977817;28;20030;-87
2021/03/01 01:31:21;;;;;;;12.35;9.25;;;9.20;76.20;;;;;;4973427;28;20041;-86
2021/03/01 01:33:46;;;;;;;12.70;9.52;;;9.20;76.30;;;;;;4977191;28;20034;-86
2021/03/01 01:36:12;;;;;;;12.80;8.55;;;9.20;76.20;;;;;;4974117;28;20030;-87
2021/03/01 01:38:38;;;;;;;12.45;8.30;;;9.20;76.30;;;;;;4961530;28;20027;-86
2021/03/01 01:41:04;;;;;;;13.07;8.82;;;9.20;76.30;;;;;;4977475;28;20081;-87
2021/03/01 01:43:30;;;;;;;12.43;8.93;;;9.20;76.30;;;;;;4993699;28;20522;-87
2021/03/01 01:45:55;;;;;;;12.75;8.88;;;9.20;76.90;;;;;;4977498;28;20026;-87
2021/03/01 01:48:21;;;;;;;12.82;8.27;;;9.10;76.30;;;;;;4993393;28;20034;-87
2021/03/01 01:50:47;;;;;;;12.30;8.30;;;9.10;76.20;;;;;;4971804;28;20384;-87
2021/03/01 01:53:13;;;;;;;11.65;8.40;;;9.10;76.20;;;;;;4982806;28;20023;-87
2021/03/01 01:55:39;;;;;;;13.43;9.55;;;9.10;76.30;;;;;;4975719;28;20036;-87
2021/03/01 01:58:05;;;;;;;12.18;8.23;;;9.10;76.30;;;;;;4976810;28;20022;-87
2021/03/01 02:03:29;;;;;;;13.13;8.95;;;9.20;76.30;;;;;;4983376;28;20030;-86
2021/03/01 02:06:01;;;;;;;13.52;8.70;;;9.10;76.40;;;;;;4992413;28;20061;-87
2021/03/01 02:08:40;;;;;;;12.60;8.50;;;9.10;76.30;;;;;;4965979;28;20038;-87
2021/03/01 02:11:14;;;;;;;13.38;8.77;;;9.10;76.40;;;;;;4992659;28;20113;-87
2021/03/01 02:13:48;;;;;;;13.30;8.60;;;9.10;76.30;;;;;;4993030;28;20129;-86
2021/03/01 02:16:23;;;;;;;11.60;8.18;;;9.10;76.40;;;;;;4976643;28;20026;-87
2021/03/01 02:18:49;;;;;;;14.25;8.45;;;9.10;76.40;;;;;;4993207;28;20069;-87
2021/03/01 02:21:15;;;;;;;14.65;9.63;;;9.10;76.40;;;;;;4981677;28;20072;-88
2021/03/01 02:23:42;;;;;;;12.90;8.90;;;9.10;76.40;;;;;;4977066;28;20038;-87
2021/03/01 02:26:16;;;;;;;14.05;9.45;;;9.10;76.40;;;;;;4976613;28;20046;-87
2021/03/01 02:28:46;;;;;;;12.63;8.50;;;9.00;76.40;;;;;;4976965;28;20056;-87
2021/03/01 02:31:13;;;;;;;13.50;8.73;;;9.10;76.40;;;;;;4976296;28;20309;-87
2021/03/01 02:33:44;;;;;;;13.90;9.05;;;9.00;76.40;;;;;;4976861;28;20481;-87
2021/03/01 02:36:24;;;;;;;13.25;8.63;;;9.00;76.40;;;;;;4976344;28;20039;-85
2021/03/01 02:38:52;;;;;;;13.27;8.93;;;9.00;76.40;;;;;;4995729;28;20037;-86
2021/03/01 02:41:20;;;;;;;13.38;8.60;;;9.00;76.40;;;;;;4980915;28;20031;-87
2021/03/01 02:43:47;;;;;;;13.00;8.90;;;9.00;77.10;;;;;;4958696;28;20451;-87
2021/03/01 02:46:13;;;;;;;14.07;9.57;;;9.00;76.50;;;;;;4973867;28;20054;-87
2021/03/01 02:48:41;;;;;;;14.35;9.35;;;9.00;76.50;;;;;;4963329;28;20149;-87
2021/03/01 02:51:07;;;;;;;13.43;9.88;;;9.00;76.50;;;;;;4960527;28;20058;-88
2021/03/01 02:53:35;;;;;;;12.63;8.75;;;9.00;76.50;;;;;;4992515;28;20034;-87
2021/03/01 02:56:01;;;;;;;13.55;9.38;;;9.00;76.50;;;;;;4985399;28;20077;-87
2021/03/01 02:58:29;;;;;;;14.15;9.07;;;9.00;76.50;;;;;;4970192;28;20032;-87
2021/03/01 03:00:57;;;;;;;13.40;9.30;;;9.00;76.50;;;;;;4976010;28;20042;-87
2021/03/01 03:03:25;;;;;;;14.63;9.75;;;9.00;76.50;;;;;;4962006;28;20108;-87
2021/03/01 03:05:51;;;;;;;14.95;9.15;;;9.00;76.50;;;;;;4993577;28;20026;-87
2021/03/01 03:08:17;;;;;;;13.52;9.27;;;8.90;76.50;;;;;;4976286;28;20077;-87
2021/03/01 03:10:46;;;;;;;13.65;8.60;;;8.90;76.50;;;;;;4975610;28;20474;-87
2021/03/01 03:13:13;;;;;;;13.68;9.52;;;8.90;76.50;;;;;;4996268;28;20046;-87
2021/03/01 03:15:40;;;;;;;14.27;9.57;;;8.90;76.50;;;;;;4977902;28;20113;-87
2021/03/01 03:18:11;;;;;;;13.45;9.25;;;9.00;76.60;;;;;;4945296;28;20189;-87
2021/03/01 03:20:37;;;;;;;13.43;8.80;;;8.90;76.50;;;;;;4979258;28;20030;-87
2021/03/01 03:23:04;;;;;;;14.35;9.63;;;8.90;76.50;;;;;;4979847;28;20072;-86
2021/03/01 03:25:30;;;;;;;12.63;8.57;;;8.90;76.50;;;;;;4995865;28;20037;-87
2021/03/01 03:27:56;;;;;;;12.35;8.30;;;8.90;76.50;;;;;;4996229;28;20022;-87
2021/03/01 03:30:24;;;;;;;12.70;8.73;;;8.90;76.50;;;;;;4979542;28;20481;-87
2021/03/01 03:32:51;;;;;;;12.30;8.70;;;8.90;76.50;;;;;;4996049;28;20030;-87
2021/03/01 03:35:17;;;;;;;12.70;8.98;;;8.90;76.50;;;;;;4982099;28;20038;-86
2021/03/01 03:38:08;;;;;;;12.73;8.98;;;8.90;76.50;;;;;;4962105;28;20117;-86
2021/03/01 03:40:35;;;;;;;13.65;8.75;;;8.90;76.70;;;;;;4979237;28;20030;-87
2021/03/01 03:43:03;;;;;;;11.68;8.13;;;8.90;76.50;;;;;;4964043;28;20030;-87
2021/03/01 03:45:30;;;;;;;13.13;8.88;;;8.90;76.60;;;;;;4995897;28;20031;-87
2021/03/01 03:48:03;;;;;;;13.27;8.88;;;8.90;76.60;;;;;;4979610;28;20030;-87
2021/03/01 03:50:31;;;;;;;14.13;9.15;;;8.90;76.60;;;;;;4995507;28;20030;-87
2021/03/01 03:53:02;;;;;;;12.85;8.25;;;8.90;76.60;;;;;;4979424;28;20387;-87
2021/03/01 03:55:29;;;;;;;12.60;8.43;;;8.90;76.60;;;;;;4995641;28;20092;-88
2021/03/01 03:57:58;;;;;;;12.68;8.50;;;8.80;76.60;;;;;;4976040;28;20026;-87
2021/03/01 04:00:31;;;;;;;12.23;8.13;;;8.80;76.60;;;;;;4975832;28;20049;-87
2021/03/01 04:03:10;;;;;;;11.13;7.63;;;8.80;76.60;;;;;;4990442;28;20027;-87
2021/03/01 04:05:43;;;;;;;10.82;7.93;;;8.80;76.60;;;;;;4981790;28;20136;-87
2021/03/01 04:08:12;;;;;;;11.95;8.45;;;8.80;76.50;;;;;;4990927;28;20022;-87
2021/03/01 04:10:41;;;;;;;11.35;7.80;;;8.80;76.50;;;;;;4986554;28;20089;-87
2021/03/01 04:13:09;;;;;;;11.27;7.28;;;8.80;76.50;;;;;;4976023;28;20027;-87
2021/03/01 04:15:36;;;;;;;11.45;7.50;;;8.80;76.60;;;;;;4965753;28;20034;-87
2021/03/01 04:18:05;;;;;;;12.27;8.80;;;8.80;76.60;;;;;;4979035;28;20034;-86
2021/03/01 04:20:34;;;;;;;12.27;8.50;;;8.80;76.60;;;;;;4978883;28;20482;-87
2021/03/01 04:23:01;;;;;;;10.57;7.53;;;8.80;76.60;;;;;;4993937;28;20027;-87
2021/03/01 04:25:28;;;;;;;12.00;8.50;;;8.80;76.60;;;;;;4978711;28;20182;-87
2021/03/01 04:27:54;;;;;;;13.07;8.52;;;8.80;76.60;;;;;;4979460;28;20037;-88
2021/03/01 04:30:20;;;;;;;11.45;8.50;;;8.80;76.60;;;;;;4978682;28;20035;-88
2021/03/01 04:32:47;;;;;;;11.05;7.82;;;8.80;76.60;;;;;;4995384;28;20034;-88
2021/03/01 04:35:18;;;;;;;13.27;8.30;;;8.80;76.60;;;;;;4977597;28;20042;-87
2021/03/01 04:37:46;;;;;;;12.75;8.88;;;8.80;76.60;;;;;;4995031;28;20027;-88
2021/03/01 04:40:13;;;;;;;11.10;7.90;;;8.80;76.60;;;;;;4978801;28;20023;-87
2021/03/01 04:42:42;;;;;;;11.63;7.80;;;8.80;76.60;;;;;;4978448;28;20038;-88
2021/03/01 04:45:10;;;;;;;12.52;8.85;;;8.80;76.60;;;;;;4994733;28;20056;-87
2021/03/01 04:47:36;;;;;;;11.27;7.85;;;8.80;76.60;;;;;;4975092;28;20019;-87
2021/03/01 04:50:03;;;;;;;12.73;8.82;;;8.80;76.60;;;;;;4988810;28;20100;-88
2021/03/01 04:52:33;;;;;;;10.82;7.60;;;8.80;76.60;;;;;;4964649;28;20030;-87
2021/03/01 04:55:01;;;;;;;12.13;8.52;;;8.80;76.60;;;;;;4995449;28;20064;-87
2021/03/01 04:57:28;;;;;;;10.60;8.13;;;8.80;76.60;;;;;;4994902;28;20038;-87
2021/03/01 04:59:58;;;;;;;10.93;7.95;;;8.70;76.50;;;;;;4977830;28;20050;-86
2021/03/01 05:02:24;;;;;;;11.25;7.88;;;8.80;76.60;;;;;;4994169;28;20034;-86
2021/03/01 05:04:50;;;;;;;11.18;7.90;;;8.70;76.50;;;;;;4978189;28;20100;-87
2021/03/01 05:07:16;;;;;;;10.55;7.60;;;8.80;76.60;;;;;;4978290;28;20365;-88
2021/03/01 05:09:42;;;;;;;11.38;8.65;;;8.70;76.50;;;;;;4977885;28;20026;-88
2021/03/01 05:12:08;;;;;;;11.13;7.32;;;8.70;76.50;;;;;;4974696;28;20019;-87
2021/03/01 05:14:34;;;;;;;10.77;7.55;;;8.70;76.50;;;;;;4974485;28;20041;-87
2021/03/01 05:17:03;;;;;;;10.48;7.30;;;8.70;76.50;;;;;;4962065;28;20033;-87
2021/03/01 05:19:30;;;;;;;10.57;7.63;;;8.70;76.60;;;;;;4961491;28;20179;-87
2021/03/01 05:21:57;;;;;;;12.45;8.38;;;8.70;76.50;;;;;;4988836;28;20035;-87
2021/03/01 05:24:23;;;;;;;10.18;7.38;;;8.70;76.60;;;;;;4977223;28;20025;-87
2021/03/01 05:26:49;;;;;;;12.95;8.65;;;8.70;76.50;;;;;;4977330;28;20035;-88
2021/03/01 05:29:14;;;;;;;10.55;7.20;;;8.70;76.50;;;;;;4961622;28;20034;-87
2021/03/01 05:31:40;;;;;;;12.18;8.15;;;8.70;76.50;;;;;;4994811;28;20032;-87
2021/03/01 05:34:06;;;;;;;10.38;7.38;;;8.70;76.60;;;;;;4977430;28;20368;-87
2021/03/01 05:36:32;;;;;;;10.07;7.55;;;8.70;76.60;;;;;;4977642;28;20042;-87
2021/03/01 05:38:57;;;;;;;10.93;7.95;;;8.70;76.60;;;;;;4957696;28;20018;-86
2021/03/01 05:41:25;;;;;;;10.57;7.55;;;8.70;76.50;;;;;;4974290;28;20023;-87
2021/03/01 05:43:52;;;;;;;11.85;7.38;;;8.70;76.60;;;;;;4977510;28;20023;-86
2021/03/01 05:46:18;;;;;;;10.15;7.68;;;8.60;76.50;;;;;;4993804;28;20113;-87
2021/03/01 05:48:46;;;;;;;10.15;7.32;;;8.60;76.50;;;;;;4993631;28;20033;-87
2021/03/01 05:51:13;;;;;;;10.45;7.53;;;8.60;76.50;;;;;;4976989;28;20018;-87
2021/03/01 05:53:42;;;;;;;11.43;8.10;;;8.60;76.60;;;;;;5004123;28;20113;-87
2021/03/01 05:56:09;;;;;;;11.52;8.38;;;8.60;76.60;;;;;;4985650;28;20049;-87
2021/03/01 05:58:35;;;;;;;12.05;8.02;;;8.60;76.60;;;;;;4986147;28;20085;-86
2021/03/01 06:01:05;;;;;;;10.98;7.85;;;8.60;76.60;;;;;;4993023;28;20129;-87
2021/03/01 06:03:35;;;;;;;13.10;8.75;;;8.60;76.60;;;;;;4994635;28;20026;-88
2021/03/01 06:06:02;;;;;;;9.93;7.30;;;8.60;76.60;;;;;;4976846;28;20030;-87
2021/03/01 06:08:30;;;;;;;11.68;8.20;;;8.60;76.60;;;;;;4992984;28;20019;-88
2021/03/01 06:11:04;;;;;;;13.02;8.48;;;8.60;76.50;;;;;;4970355;28;20042;-88
2021/03/01 06:13:30;;;;;;;11.55;7.80;;;8.60;76.60;;;;;;4992785;28;20033;-84
2021/03/01 06:15:58;;;;;;;11.40;7.93;;;8.60;76.60;;;;;;4992796;28;20022;-86
2021/03/01 06:18:25;;;;;;;10.63;7.55;;;8.50;76.50;;;;;;4977107;28;20030;-82
2021/03/01 06:20:51;;;;;;;12.40;8.45;;;8.60;76.60;;;;;;4968759;28;20031;-81
2021/03/01 06:23:32;;;;;;;11.57;8.45;;;8.50;76.60;;;;;;4991249;28;20027;-83
2021/03/01 06:26:34;;;;;;;12.02;8.57;;;8.50;76.60;;;;;;4992022;28;20375;-81
2021/03/01 06:29:02;;;;;;;11.98;8.07;;;8.50;76.70;;;;;;4886451;29;20115;-83
2021/03/01 06:31:32;;;;;;;10.80;7.65;;;8.50;76.50;;;;;;4951542;28;20039;-83
2021/03/01 06:34:17;;;;;;;10.68;8.02;;;8.50;76.60;;;;;;4986632;28;20466;-82
2021/03/01 06:37:09;;;;;;;12.25;8.30;;;8.50;76.70;;;;;;4972998;28;20030;-82
2021/03/01 06:39:46;;;;;;;10.75;7.78;;;8.50;76.70;;;;;;4988221;28;20038;-84
2021/03/01 06:42:18;;;;;;;10.02;7.43;;;8.50;76.60;;;;;;4991905;28;20031;-84
2021/03/01 06:44:47;;;;;;;11.50;8.63;;;8.50;76.60;;;;;;4992141;28;20039;-85
2021/03/01 06:47:13;;;;;;;10.70;7.70;;;8.40;76.50;;;;;;4994602;28;20030;-83
2021/03/01 06:49:41;;;;;;;12.25;8.88;;;8.50;76.60;;;;;;4995831;28;20042;-85
2021/03/01 06:52:08;;;;;;;11.50;8.30;;;8.40;76.60;;;;;;4960785;28;20478;-88
2021/03/01 06:54:34;;;;;;;12.50;8.45;;;8.40;76.60;;;;;;4964000;28;20046;-89
2021/03/01 06:57:00;;;;;;;11.52;8.13;;;8.40;76.60;;;;;;4980578;28;20026;-90
2021/03/01 06:59:27;;;;;;;11.05;8.27;;;8.40;77.20;;;;;;4967275;28;20049;-89
2021/03/01 07:01:58;;;;;;;11.55;8.07;;;8.40;76.60;;;;;;4964493;28;20058;-90
2021/03/01 07:04:31;;;;;;;13.15;9.32;;;8.40;76.60;;;;;;4996911;28;20041;-89
2021/03/01 07:07:02;;;;;;;11.85;8.23;;;8.40;76.60;;;;;;4980806;28;20084;-89
2021/03/01 07:09:29;;;;;;;12.25;8.38;;;8.40;76.60;;;;;;4980611;28;20371;-89
2021/03/01 07:11:56;;;;;;;12.05;8.02;;;8.40;76.60;;;;;;4980702;28;20026;-89
2021/03/01 07:14:25;;;;;;;11.65;8.18;;;8.40;76.60;;;;;;4996560;28;20128;-89
2021/03/01 07:16:52;;;;;;;12.20;8.57;;;8.40;76.60;;;;;;4996528;28;20088;-88
2021/03/01 07:19:19;;;;;;;11.77;8.90;;;8.40;76.60;;;;;;4978656;28;20058;-89
2021/03/01 07:21:48;;;;;;;12.05;7.90;;;8.40;76.60;;;;;;4976882;28;20463;-88
2021/03/01 07:24:17;;;;;;;10.98;7.80;;;8.40;76.60;;;;;;4996712;28;20141;-89
2021/03/01 07:26:44;;;;;;;11.30;8.05;;;8.40;76.60;;;;;;4996191;28;20023;-89
2021/03/01 07:29:12;;;;;;;11.65;8.05;;;8.30;76.50;;;;;;4996668;28;20026;-89
2021/03/01 07:31:42;;;;;;;12.60;8.60;;;8.30;76.50;;;;;;4979252;28;20026;-89
2021/03/01 07:34:09;;;;;;;11.35;7.97;;;8.40;76.60;;;;;;4980721;28;20031;-83
2021/03/01 07:36:36;;;;;;;11.48;7.88;;;8.30;76.50;;;;;;4978939;28;20037;-84
2021/03/01 07:39:07;;;;;;;10.82;7.70;;;8.30;76.50;;;;;;4995126;28;20424;-84
2021/03/01 07:41:33;;;;;;;10.45;7.25;;;8.40;76.60;;;;;;4980161;28;20030;-83
2021/03/01 07:44:00;;;;;;;11.02;8.23;;;8.30;76.50;;;;;;4979324;28;20060;-83
2021/03/01 07:46:31;;;;;;;11.65;7.60;;;8.30;76.50;;;;;;4995187;28;20028;-83
2021/03/01 07:48:57;;;;;;;11.38;7.93;;;8.30;76.50;;;;;;4994970;28;20467;-83
2021/03/01 07:51:39;;;;;;;10.00;6.95;;;8.30;76.50;;;;;;4978808;28;20551;-82
2021/03/01 07:54:05;;;;;;;10.88;7.68;;;8.30;76.60;;;;;;4978792;28;20042;-83
2021/03/01 07:56:31;;;;;;;10.70;7.68;;;8.30;76.50;;;;;;4995059;28;20526;-83
2021/03/01 07:59:02;;;;;;;11.40;7.75;;;8.20;76.50;;;;;;4994475;28;20474;-83
2021/03/01 08:01:29;;;;;;;10.23;7.15;;;8.30;76.60;;;;;;4994491;28;20050;-83
2021/03/01 08:03:55;;;;;;;10.75;7.90;;;8.30;76.60;;;;;;4996060;28;20061;-82
2021/03/01 08:06:22;;;;;;;10.98;7.43;;;8.20;76.50;;;;;;4994810;28;20022;-81
2021/03/01 08:08:52;;;;;;;11.32;7.38;;;8.20;76.50;;;;;;4994538;28;20519;-82
2021/03/01 08:11:37;;;;;;;10.48;7.20;;;8.20;76.60;;;;;;4994750;28;20081;-82
2021/03/01 08:14:11;;;;;;;10.55;7.18;;;8.20;76.70;;;;;;4978288;28;20041;-82
2021/03/01 08:16:37;;;;;;;10.70;7.60;;;8.30;76.50;;;;;;4978401;28;20120;-83
2021/03/01 08:19:03;;;;;;;10.65;7.82;;;8.20;76.50;;;;;;4979356;28;20030;-82
2021/03/01 08:22:03;;;;;;;11.02;7.85;;;8.20;76.50;;;;;;4979376;28;20455;-83
2021/03/01 08:24:48;;;;;;;10.80;7.47;;;8.20;76.70;;;;;;4979080;28;20062;-82
2021/03/01 08:27:26;;;;;;;11.38;8.23;;;8.20;77.30;;;;;;4983186;28;20030;-83
2021/03/01 08:30:21;;;;;;;10.60;7.43;;;8.20;76.60;;;;;;4995223;28;20039;-82
2021/03/01 08:33:09;;;;;;;10.37;7.37;;;8.20;76.70;;;;;;4980479;28;20038;-83
2021/03/01 08:35:36;;;;;;;10.43;7.50;;;8.20;76.70;;;;;;4996002;28;20303;-83
2021/03/01 08:38:02;;;;;;;10.65;7.32;;;8.20;76.60;;;;;;4978857;28;20034;-84
2021/03/01 08:40:28;;;;;;;9.98;7.07;;;8.20;77.30;;;;;;4978745;28;20087;-84
2021/03/01 08:43:00;;;;;;;12.32;8.25;;;8.20;76.70;;;;;;4995178;28;20022;-84
2021/03/01 08:45:27;;;;;;;12.60;8.52;;;8.20;76.70;;;;;;4994536;28;20080;-85
2021/03/01 08:47:56;;;;;;;12.32;7.70;;;8.20;76.70;;;;;;4995193;28;20022;-84
2021/03/01 08:50:28;;;;;;;10.77;7.55;;;8.20;76.70;;;;;;4993945;28;20030;-82
2021/03/01 08:52:54;;;;;;;11.75;7.90;;;8.20;76.80;;;;;;4994585;28;20023;-83
2021/03/01 08:55:21;;;;;;;12.00;8.13;;;8.20;76.70;;;;;;4994431;28;20041;-86
2021/03/01 08:58:08;;;;;;;11.60;7.60;;;8.20;76.70;;;;;;4978128;28;20071;-84
2021/03/01 09:00:37;;;;;;;11.20;7.60;;;8.20;76.90;;;;;;4994139;28;20026;-86
2021/03/01 09:03:19;;;;;;;11.55;8.00;;;8.20;76.70;;;;;;4994300;28;20037;-86
2021/03/01 09:05:47;;;;;;;12.20;8.45;;;8.20;76.80;;;;;;4994095;28;20591;-84
2021/03/01 09:08:14;;;;;;;12.00;7.97;;;8.20;76.70;;;;;;4978144;28;20037;-85
2021/03/01 09:10:43;;;;;;;10.50;8.05;;;8.20;76.70;;;;;;4993479;28;20030;-85
2021/03/01 09:13:14;;;;;;;11.75;8.02;;;8.20;76.70;;;;;;4994321;28;20026;-85
2021/03/01 09:15:40;;;;;;;11.95;8.68;;;8.20;76.80;;;;;;4958595;28;20038;-82
2021/03/01 09:18:08;;;;;;;10.93;7.35;;;8.20;76.70;;;;;;4993915;28;20386;-86
2021/03/01 09:20:54;;;;;;;10.55;7.47;;;8.20;76.70;;;;;;4994051;28;20041;-86
2021/03/01 09:23:42;;;;;;;11.93;8.00;;;8.20;76.90;;;;;;4981148;28;20506;-85
2021/03/01 09:26:19;;;;;;;11.02;6.93;;;8.20;76.80;;;;;;4977906;28;20418;-85
2021/03/01 09:28:46;;;;;;;11.45;7.70;;;8.20;76.70;;;;;;4993578;28;20022;-85
2021/03/01 09:31:14;;;;;;;11.68;7.43;;;8.20;76.70;;;;;;4993161;28;20482;-85
2021/03/01 09:33:41;;;;;;;10.55;6.90;;;8.20;76.70;;;;;;4994120;28;20110;-84
2021/03/01 09:36:08;;;;;;;11.48;7.80;;;8.20;76.80;;;;;;4993907;28;20467;-86
2021/03/01 09:38:36;;;;;;;10.60;7.25;;;8.20;76.70;;;;;;4993704;28;20455;-85
2021/03/01 09:41:14;;;;;;;11.52;7.68;;;8.20;76.70;;;;;;4976213;28;20038;-86
2021/03/01 09:43:42;;;;;;;10.88;7.32;;;8.20;76.80;;;;;;4993903;28;20045;-87
2021/03/01 09:46:08;;;;;;;12.20;8.30;;;8.20;76.70;;;;;;4974145;28;20360;-85
2021/03/01 09:48:55;;;;;;;11.10;7.72;;;8.30;76.80;;;;;;4976103;28;20100;-84
2021/03/01 09:51:23;;;;;;;10.10;7.25;;;8.30;76.90;;;;;;4992479;28;20479;-84
2021/03/01 09:53:49;;;;;;;10.75;6.82;;;8.30;76.70;;;;;;4976716;28;20054;-84
2021/03/01 09:56:16;;;;;;;10.85;7.57;;;8.30;77.40;;;;;;4993683;28;20049;-85
2021/03/01 09:58:44;;;;;;;10.95;7.55;;;8.30;76.80;;;;;;4993525;28;20489;-84
2021/03/01 10:01:15;;;;;;;11.77;7.65;;;8.30;76.80;;;;;;4963539;28;20082;-84
2021/03/01 10:03:42;;;;;;;10.65;7.82;;;8.30;76.80;;;;;;4977295;28;20032;-84
2021/03/01 10:06:08;;;;;;;11.55;7.82;;;8.30;76.80;;;;;;4994058;28;20092;-84
2021/03/01 10:08:35;;;;;;;12.50;7.93;;;8.30;76.70;;;;;;4993086;28;20026;-84
2021/03/01 10:11:01;;;;;;;10.73;7.00;;;8.30;76.70;;;;;;4976598;28;20034;-84
2021/03/01 10:13:36;;;;;;;12.55;8.15;;;8.30;77.40;;;;;;4976815;28;20026;-83
2021/03/01 10:16:04;;;;;;;10.98;7.18;;;8.30;76.80;;;;;;4959970;28;20062;-84
2021/03/01 10:18:32;;;;;;;10.50;7.25;;;8.40;76.80;;;;;;4992960;28;20022;-84
2021/03/01 10:21:06;;;;;;;10.77;7.30;;;8.30;76.70;;;;;;4991919;28;20042;-85
2021/03/01 10:23:38;;;;;;;11.17;7.13;;;8.40;76.80;;;;;;4980653;28;20026;-85
2021/03/01 10:26:16;;;;;;;10.02;6.68;;;8.40;76.80;;;;;;4992879;28;20308;-85
2021/03/01 10:28:58;;;;;;;9.38;6.22;;;8.40;76.70;;;;;;4992936;28;20703;-84
2021/03/01 10:31:26;;;;;;;9.90;6.78;;;8.40;76.80;;;;;;4976963;28;20034;-85
2021/03/01 10:34:00;;;;;;;10.75;7.40;;;8.40;76.70;;;;;;4976438;28;20022;-85
2021/03/01 10:36:52;;;;;;;11.23;7.38;;;8.40;76.80;;;;;;4993985;28;20593;-85
2021/03/01 10:39:34;;;;;;;10.40;7.30;;;8.40;76.90;;;;;;4976659;28;20022;-85
2021/03/01 10:42:11;;;;;;;10.30;7.20;;;8.40;76.70;;;;;;4992608;28;20121;-85
2021/03/01 10:44:40;;;;;;;10.60;7.25;;;8.40;76.70;;;;;;4992432;28;20034;-85
2021/03/01 10:47:22;;;;;;;10.40;7.40;;;8.50;76.70;;;;;;4976239;28;20118;-86
2021/03/01 10:49:53;;;;;;;11.60;7.75;;;8.50;76.80;;;;;;4976617;28;20040;-86
2021/03/01 10:52:20;;;;;;;10.05;7.05;;;8.50;76.70;;;;;;4992661;28;20109;-85
2021/03/01 10:54:46;;;;;;;10.27;6.70;;;8.50;76.70;;;;;;4967670;28;20030;-85
2021/03/01 10:57:12;;;;;;;10.90;7.22;;;8.50;76.70;;;;;;4988044;28;20042;-86
2021/03/01 10:59:38;;;;;;;9.73;6.78;;;8.50;76.70;;;;;;4976949;28;20026;-86
2021/03/01 11:02:06;;;;;;;11.48;7.13;;;8.50;76.70;;;;;;4991711;28;20054;-86
2021/03/01 11:04:31;;;;;;;9.73;6.95;;;8.50;76.70;;;;;;4992510;28;20041;-86
2021/03/01 11:06:57;;;;;;;10.45;6.78;;;8.50;76.70;;;;;;4966928;28;20031;-87
2021/03/01 11:09:23;;;;;;;11.35;7.22;;;8.60;76.70;;;;;;4956484;28;20026;-82
2021/03/01 11:11:50;;;;;;;10.32;6.90;;;8.60;76.70;;;;;;4975947;28;20109;-83
2021/03/01 11:14:18;;;;;;;9.60;6.30;;;8.60;76.70;;;;;;4959443;28;20046;-82
2021/03/01 11:16:43;;;;;;;9.30;6.43;;;8.60;76.70;;;;;;4992072;28;20125;-81
2021/03/01 11:19:11;;;;;;;10.05;7.25;;;8.60;76.70;;;;;;4992644;28;20113;-80
2021/03/01 11:21:38;;;;;;;9.52;6.60;;;8.70;76.70;;;;;;4991470;28;20498;-81
2021/03/01 11:24:05;;;;;;;10.00;6.10;;;8.70;76.70;;;;;;4974769;28;20057;-80
2021/03/01 11:26:31;;;;;;;11.52;7.28;;;8.70;76.70;;;;;;4991238;28;20034;-79
2021/03/01 11:28:57;;;;;;;10.63;6.53;;;8.70;76.70;;;;;;4971779;28;20109;-79
2021/03/01 11:31:23;;;;;;;10.82;7.90;;;8.70;76.70;;;;;;4984475;28;20038;-79
2021/03/01 11:33:49;;;;;;;10.52;7.18;;;8.70;76.70;;;;;;4978207;28;20022;-79
2021/03/01 11:36:15;;;;;;;9.43;6.78;;;8.80;76.70;;;;;;4994189;28;20061;-82
2021/03/01 11:38:42;;;;;;;9.40;6.72;;;8.80;76.70;;;;;;4995368;28;20022;-85
2021/03/01 11:41:08;;;;;;;11.15;7.72;;;8.80;76.70;;;;;;4994880;28;20069;-86
2021/03/01 11:43:34;;;;;;;9.88;6.55;;;8.80;76.60;;;;;;4978851;28;20050;-85
2021/03/01 11:46:00;;;;;;;10.05;7.20;;;8.80;76.60;;;;;;4975850;28;20595;-84
2021/03/01 11:48:26;;;;;;;10.90;7.20;;;8.80;76.60;;;;;;4978812;28;20035;-86
2021/03/01 11:50:52;;;;;;;10.25;6.38;;;8.90;76.60;;;;;;4960369;28;20051;-85
2021/03/01 11:53:18;;;;;;;10.55;6.80;;;8.90;76.60;;;;;;4975934;28;20078;-85
2021/03/01 11:55:44;;;;;;;9.13;6.45;;;8.90;76.60;;;;;;4979117;28;20070;-84
2021/03/01 11:58:10;;;;;;;9.70;6.60;;;8.90;76.60;;;;;;4995541;28;20034;-84
2021/03/01 12:00:40;;;;;;;9.32;6.40;;;8.90;76.60;;;;;;4979285;28;20452;-84
2021/03/01 12:03:07;;;;;;;9.77;6.53;;;9.00;76.60;;;;;;4996678;28;20050;-84
2021/03/01 12:05:35;;;;;;;9.32;6.65;;;9.00;76.50;;;;;;4978982;28;20041;-84
2021/03/01 12:08:01;;;;;;;9.88;6.80;;;9.00;76.50;;;;;;4995079;28;20479;-84
2021/03/01 12:10:26;;;;;;;9.95;6.78;;;9.10;76.50;;;;;;4995466;28;20060;-84
2021/03/01 12:12:52;;;;;;;9.57;6.45;;;9.10;76.50;;;;;;4995384;28;20117;-83
2021/03/01 12:15:18;;;;;;;9.27;6.32;;;9.10;76.50;;;;;;4962738;28;20356;-83
2021/03/01 12:17:44;;;;;;;10.05;6.93;;;9.10;76.50;;;;;;4992468;28;20040;-84
2021/03/01 12:20:10;;;;;;;8.20;6.10;;;9.10;76.40;;;;;;4994662;28;20031;-85
2021/03/01 12:22:36;;;;;;;9.52;6.22;;;9.10;76.40;;;;;;4994943;28;20026;-85
2021/03/01 12:25:03;;;;;;;9.65;6.05;;;9.20;76.50;;;;;;4978682;28;20559;-85
2021/03/01 12:27:29;;;;;;;8.93;6.38;;;9.20;76.50;;;;;;4996715;28;20026;-83
2021/03/01 12:29:55;;;;;;;8.38;6.10;;;9.20;76.40;;;;;;4996679;28;20085;-84
2021/03/01 12:32:21;;;;;;;9.82;7.13;;;9.20;76.30;;;;;;4946181;28;20077;-84
2021/03/01 12:34:47;;;;;;;9.68;7.00;;;9.30;76.40;;;;;;4994362;28;20027;-85
2021/03/01 12:37:12;;;;;;;9.63;6.60;;;9.30;76.30;;;;;;4959006;28;20554;-84
2021/03/01 12:39:38;;;;;;;9.88;6.78;;;9.40;76.50;;;;;;4985517;28;20385;-84
2021/03/01 12:42:05;;;;;;;9.35;6.40;;;9.40;76.30;;;;;;4995663;28;20018;-85
2021/03/01 12:44:31;;;;;;;9.73;6.43;;;9.30;76.30;;;;;;4993166;28;20416;-84
2021/03/01 12:46:57;;;;;;;9.35;6.47;;;9.40;76.30;;;;;;4962051;28;20080;-81
2021/03/01 12:49:23;;;;;;;8.98;5.78;;;9.40;76.30;;;;;;4976663;28;20038;-83
2021/03/01 12:51:49;;;;;;;9.48;6.25;;;9.40;76.30;;;;;;4976489;28;20022;-83
2021/03/01 12:54:16;;;;;;;9.35;6.28;;;9.50;77.00;;;;;;4961855;28;20042;-84
2021/03/01 12:56:42;;;;;;;10.80;6.90;;;9.50;76.30;;;;;;4995066;28;20034;-85
2021/03/01 12:59:08;;;;;;;9.00;6.10;;;9.50;76.30;;;;;;4977136;28;20459;-84